sensor_id;sensor_type;location;lat;lon;timestamp;temperature;humidity
19803;DHT22;66074;50.764;6.090;2023-04-03T00:00:32;5.00;95.40
19803;DHT22;66074;50.764;6.090;2023-04-03T00:02:58;5.00;95.40
19803;DHT22;66074;50.764;6.090;2023-04-03T00:05:24;5.00;95.40
19803;DHT22;66074;50.764;6.090;2023-04-03T00:07:49;4.90;95.30
19803;DHT22;66074;50.764;6.090;2023-04-03T00:10:15;4.90;95.30
19803;DHT22;66074;50.764;6.090;2023-04-03T00:12:41;4.90;95.30
19803;DHT22;66074;50.764;6.090;2023-04-03T00:15:07;4.90;95.50
19803;DHT22;66074;50.764;6.090;2023-04-03T00:17:35;4.90;95.30
19803;DHT22;66074;50.764;6.090;2023-04-03T00:20:01;4.90;95.10
19803;DHT22;66074;50.764;6.090;2023-04-03T00:22:26;4.90;95.20
19803;DHT22;66074;50.764;6.090;2023-04-03T00:24:54;4.90;95.10
19803;DHT22;66074;50.764;6.090;2023-04-03T00:27:19;4.90;95.20
19803;DHT22;66074;50.764;6.090;2023-04-03T00:29:45;4.90;95.20
19803;DHT22;66074;50.764;6.090;2023-04-03T00:32:10;4.90;95.20
19803;DHT22;66074;50.764;6.090;2023-04-03T00:34:36;5.00;95.30
19803;DHT22;66074;50.764;6.090;2023-04-03T00:37:02;5.00;95.20
19803;DHT22;66074;50.764;6.090;2023-04-03T00:39:27;5.00;95.20
19803;DHT22;66074;50.764;6.090;2023-04-03T00:41:53;5.00;95.20
19803;DHT22;66074;50.764;6.090;2023-04-03T00:47:13;5.00;95.00
19803;DHT22;66074;50.764;6.090;2023-04-03T00:49:40;5.00;95.50
19803;DHT22;66074;50.764;6.090;2023-04-03T00:52:10;4.90;95.20
19803;DHT22;66074;50.764;6.090;2023-04-03T00:54:38;4.90;95.20
19803;DHT22;66074;50.764;6.090;2023-04-03T00:57:05;4.90;95.20
19803;DHT22;66074;50.764;6.090;2023-04-03T00:59:34;4.90;95.20
19803;DHT22;66074;50.764;6.090;2023-04-03T01:02:01;4.90;95.10
19803;DHT22;66074;50.764;6.090;2023-04-03T01:04:30;4.80;95.10
19803;DHT22;66074;50.764;6.090;2023-04-03T01:07:21;4.80;95.10
19803;DHT22;66074;50.764;6.090;2023-04-03T01:09:47;4.80;95.10
19803;DHT22;66074;50.764;6.090;2023-04-03T01:14:43;4.80;95.10
19803;DHT22;66074;50.764;6.090;2023-04-03T01:17:45;4.80;95.10
19803;DHT22;66074;50.764;6.090;2023-04-03T01:25:33;4.70;95.00
19803;DHT22;66074;50.764;6.090;2023-04-03T01:28:00;4.60;95.00
19803;DHT22;66074;50.764;6.090;2023-04-03T01:30:30;4.60;95.00
19803;DHT22;66074;50.764;6.090;2023-04-03T01:32:56;4.60;95.00
19803;DHT22;66074;50.764;6.090;2023-04-03T01:35:22;4.60;95.20
19803;DHT22;66074;50.764;6.090;2023-04-03T01:37:48;4.60;95.30
19803;DHT22;66074;50.764;6.090;2023-04-03T01:40:14;4.60;95.20
19803;DHT22;66074;50.764;6.090;2023-04-03T01:42:39;4.60;95.40
19803;DHT22;66074;50.764;6.090;2023-04-03T01:45:05;4.60;95.40
19803;DHT22;66074;50.764;6.090;2023-04-03T01:47:31;4.60;95.20
19803;DHT22;66074;50.764;6.090;2023-04-03T01:49:56;4.50;95.20
19803;DHT22;66074;50.764;6.090;2023-04-03T01:52:22;4.50;95.50
19803;DHT22;66074;50.764;6.090;2023-04-03T01:54:48;4.50;95.60
19803;DHT22;66074;50.764;6.090;2023-04-03T01:57:13;4.50;95.70
19803;DHT22;66074;50.764;6.090;2023-04-03T01:59:40;4.50;95.70
19803;DHT22;66074;50.764;6.090;2023-04-03T02:02:06;4.40;95.70
19803;DHT22;66074;50.764;6.090;2023-04-03T02:04:32;4.40;95.90
19803;DHT22;66074;50.764;6.090;2023-04-03T02:06:57;4.40;95.80
19803;DHT22;66074;50.764;6.090;2023-04-03T02:09:23;4.30;95.80
19803;DHT22;66074;50.764;6.090;2023-04-03T02:11:49;4.30;95.80
19803;DHT22;66074;50.764;6.090;2023-04-03T02:14:14;4.40;95.90
19803;DHT22;66074;50.764;6.090;2023-04-03T02:16:40;4.30;95.90
19803;DHT22;66074;50.764;6.090;2023-04-03T02:19:06;4.30;95.90
19803;DHT22;66074;50.764;6.090;2023-04-03T02:21:32;4.20;95.90
19803;DHT22;66074;50.764;6.090;2023-04-03T02:23:58;4.20;95.90
19803;DHT22;66074;50.764;6.090;2023-04-03T02:26:23;4.20;96.00
19803;DHT22;66074;50.764;6.090;2023-04-03T02:28:49;4.20;96.10
19803;DHT22;66074;50.764;6.090;2023-04-03T02:31:15;4.20;96.10
19803;DHT22;66074;50.764;6.090;2023-04-03T02:33:40;4.20;96.10
19803;DHT22;66074;50.764;6.090;2023-04-03T02:36:07;4.20;96.10
19803;DHT22;66074;50.764;6.090;2023-04-03T02:38:33;4.20;96.10
19803;DHT22;66074;50.764;6.090;2023-04-03T02:41:08;4.10;96.00
19803;DHT22;66074;50.764;6.090;2023-04-03T02:43:34;4.10;96.10
19803;DHT22;66074;50.764;6.090;2023-04-03T02:45:59;4.00;96.10
19803;DHT22;66074;50.764;6.090;2023-04-03T02:48:25;4.00;96.10
19803;DHT22;66074;50.764;6.090;2023-04-03T02:50:51;4.10;96.20
19803;DHT22;66074;50.764;6.090;2023-04-03T02:53:18;4.00;96.10
19803;DHT22;66074;50.764;6.090;2023-04-03T02:55:44;3.90;96.10
19803;DHT22;66074;50.764;6.090;2023-04-03T02:58:10;3.90;96.20
19803;DHT22;66074;50.764;6.090;2023-04-03T03:00:36;3.90;96.20
19803;DHT22;66074;50.764;6.090;2023-04-03T03:03:02;3.90;96.20
19803;DHT22;66074;50.764;6.090;2023-04-03T03:05:28;3.80;96.20
19803;DHT22;66074;50.764;6.090;2023-04-03T03:07:54;3.80;96.20
19803;DHT22;66074;50.764;6.090;2023-04-03T03:10:20;3.80;96.20
19803;DHT22;66074;50.764;6.090;2023-04-03T03:12:46;3.70;96.20
19803;DHT22;66074;50.764;6.090;2023-04-03T03:15:11;3.80;96.30
19803;DHT22;66074;50.764;6.090;2023-04-03T03:17:37;3.80;96.30
19803;DHT22;66074;50.764;6.090;2023-04-03T03:20:04;3.70;96.20
19803;DHT22;66074;50.764;6.090;2023-04-03T03:22:30;3.70;96.30
19803;DHT22;66074;50.764;6.090;2023-04-03T03:24:56;3.70;96.30
19803;DHT22;66074;50.764;6.090;2023-04-03T03:27:21;3.70;96.30
19803;DHT22;66074;50.764;6.090;2023-04-03T03:29:47;3.70;96.40
19803;DHT22;66074;50.764;6.090;2023-04-03T03:32:13;3.80;96.40
19803;DHT22;66074;50.764;6.090;2023-04-03T03:34:38;3.70;96.40
19803;DHT22;66074;50.764;6.090;2023-04-03T03:37:04;3.80;96.40
19803;DHT22;66074;50.764;6.090;2023-04-03T03:39:30;3.70;96.30
19803;DHT22;66074;50.764;6.090;2023-04-03T03:41:56;3.80;96.40
19803;DHT22;66074;50.764;6.090;2023-04-03T03:44:22;3.70;96.40
19803;DHT22;66074;50.764;6.090;2023-04-03T03:46:48;3.70;96.40
19803;DHT22;66074;50.764;6.090;2023-04-03T03:49:13;3.70;96.40
19803;DHT22;66074;50.764;6.090;2023-04-03T03:51:39;3.60;96.30
19803;DHT22;66074;50.764;6.090;2023-04-03T03:54:06;3.60;96.30
19803;DHT22;66074;50.764;6.090;2023-04-03T03:56:31;3.60;96.40
19803;DHT22;66074;50.764;6.090;2023-04-03T03:58:57;3.60;96.40
19803;DHT22;66074;50.764;6.090;2023-04-03T04:01:23;3.60;96.40
19803;DHT22;66074;50.764;6.090;2023-04-03T04:03:50;3.70;96.60
19803;DHT22;66074;50.764;6.090;2023-04-03T04:06:15;3.60;96.80
19803;DHT22;66074;50.764;6.090;2023-04-03T04:08:41;3.60;96.50
19803;DHT22;66074;50.764;6.090;2023-04-03T04:11:07;3.60;96.70
19803;DHT22;66074;50.764;6.090;2023-04-03T04:13:33;3.50;96.40
19803;DHT22;66074;50.764;6.090;2023-04-03T04:15:59;3.60;96.50
19803;DHT22;66074;50.764;6.090;2023-04-03T04:18:25;3.60;96.50
19803;DHT22;66074;50.764;6.090;2023-04-03T04:20:51;3.50;96.50
19803;DHT22;66074;50.764;6.090;2023-04-03T04:23:17;3.60;96.60
19803;DHT22;66074;50.764;6.090;2023-04-03T04:25:45;3.50;96.50
19803;DHT22;66074;50.764;6.090;2023-04-03T04:28:11;3.50;96.50
19803;DHT22;66074;50.764;6.090;2023-04-03T04:30:37;3.50;96.60
19803;DHT22;66074;50.764;6.090;2023-04-03T04:33:03;3.40;96.50
19803;DHT22;66074;50.764;6.090;2023-04-03T04:35:28;3.40;96.60
19803;DHT22;66074;50.764;6.090;2023-04-03T04:37:54;3.40;96.50
19803;DHT22;66074;50.764;6.090;2023-04-03T04:40:20;3.40;96.60
19803;DHT22;66074;50.764;6.090;2023-04-03T04:42:46;3.40;96.60
19803;DHT22;66074;50.764;6.090;2023-04-03T04:45:11;3.40;96.60
19803;DHT22;66074;50.764;6.090;2023-04-03T04:47:37;3.40;96.60
19803;DHT22;66074;50.764;6.090;2023-04-03T04:50:03;3.40;96.70
19803;DHT22;66074;50.764;6.090;2023-04-03T04:52:29;3.40;96.70
19803;DHT22;66074;50.764;6.090;2023-04-03T04:54:54;3.40;96.70
19803;DHT22;66074;50.764;6.090;2023-04-03T04:57:20;3.50;96.80
19803;DHT22;66074;50.764;6.090;2023-04-03T04:59:45;3.40;96.70
19803;DHT22;66074;50.764;6.090;2023-04-03T05:02:11;3.40;96.70
19803;DHT22;66074;50.764;6.090;2023-04-03T05:04:37;3.60;96.80
19803;DHT22;66074;50.764;6.090;2023-04-03T05:07:02;3.40;96.70
19803;DHT22;66074;50.764;6.090;2023-04-03T05:09:28;3.30;96.60
19803;DHT22;66074;50.764;6.090;2023-04-03T05:11:53;3.30;96.70
19803;DHT22;66074;50.764;6.090;2023-04-03T05:14:19;3.20;96.70
19803;DHT22;66074;50.764;6.090;2023-04-03T05:16:45;3.20;96.80
19803;DHT22;66074;50.764;6.090;2023-04-03T05:19:10;3.20;97.00
19803;DHT22;66074;50.764;6.090;2023-04-03T05:21:36;3.20;97.00
19803;DHT22;66074;50.764;6.090;2023-04-03T05:24:02;3.30;97.00
19803;DHT22;66074;50.764;6.090;2023-04-03T05:26:29;3.40;97.00
19803;DHT22;66074;50.764;6.090;2023-04-03T05:28:55;3.40;97.00
19803;DHT22;66074;50.764;6.090;2023-04-03T05:31:21;3.40;96.90
19803;DHT22;66074;50.764;6.090;2023-04-03T05:33:47;3.30;96.90
19803;DHT22;66074;50.764;6.090;2023-04-03T05:36:12;3.30;97.10
19803;DHT22;66074;50.764;6.090;2023-04-03T05:38:38;3.40;97.10
19803;DHT22;66074;50.764;6.090;2023-04-03T05:41:04;3.40;97.10
19803;DHT22;66074;50.764;6.090;2023-04-03T05:43:30;3.40;97.20
19803;DHT22;66074;50.764;6.090;2023-04-03T05:45:56;3.50;97.20
19803;DHT22;66074;50.764;6.090;2023-04-03T05:48:21;3.50;97.20
19803;DHT22;66074;50.764;6.090;2023-04-03T05:50:47;3.50;97.20
19803;DHT22;66074;50.764;6.090;2023-04-03T05:53:21;3.60;97.20
19803;DHT22;66074;50.764;6.090;2023-04-03T05:55:47;3.60;97.20
19803;DHT22;66074;50.764;6.090;2023-04-03T05:58:13;3.60;97.10
19803;DHT22;66074;50.764;6.090;2023-04-03T06:00:39;3.50;97.20
19803;DHT22;66074;50.764;6.090;2023-04-03T06:03:05;3.50;97.20
19803;DHT22;66074;50.764;6.090;2023-04-03T06:05:31;3.50;97.10
19803;DHT22;66074;50.764;6.090;2023-04-03T06:07:57;3.50;97.20
19803;DHT22;66074;50.764;6.090;2023-04-03T06:10:23;3.60;97.10
19803;DHT22;66074;50.764;6.090;2023-04-03T06:12:48;3.60;97.20
19803;DHT22;66074;50.764;6.090;2023-04-03T06:15:14;3.60;97.20
19803;DHT22;66074;50.764;6.090;2023-04-03T06:17:40;3.60;97.30
19803;DHT22;66074;50.764;6.090;2023-04-03T06:20:07;3.70;97.30
19803;DHT22;66074;50.764;6.090;2023-04-03T06:22:33;3.70;97.20
19803;DHT22;66074;50.764;6.090;2023-04-03T06:24:58;3.80;97.10
19803;DHT22;66074;50.764;6.090;2023-04-03T06:27:24;3.80;97.10
19803;DHT22;66074;50.764;6.090;2023-04-03T06:29:50;3.90;97.10
19803;DHT22;66074;50.764;6.090;2023-04-03T06:32:16;3.80;97.00
19803;DHT22;66074;50.764;6.090;2023-04-03T06:34:42;3.80;96.90
19803;DHT22;66074;50.764;6.090;2023-04-03T06:37:16;3.90;97.10
19803;DHT22;66074;50.764;6.090;2023-04-03T06:39:42;3.90;97.10
19803;DHT22;66074;50.764;6.090;2023-04-03T06:42:08;3.90;97.00
19803;DHT22;66074;50.764;6.090;2023-04-03T06:44:34;3.90;97.10
19803;DHT22;66074;50.764;6.090;2023-04-03T06:47:00;3.90;97.10
19803;DHT22;66074;50.764;6.090;2023-04-03T06:49:26;4.10;97.10
19803;DHT22;66074;50.764;6.090;2023-04-03T06:51:52;4.00;97.00
19803;DHT22;66074;50.764;6.090;2023-04-03T06:54:17;4.10;97.00
19803;DHT22;66074;50.764;6.090;2023-04-03T06:56:43;4.30;97.00
19803;DHT22;66074;50.764;6.090;2023-04-03T06:59:10;4.10;96.90
19803;DHT22;66074;50.764;6.090;2023-04-03T07:01:37;4.30;96.90
19803;DHT22;66074;50.764;6.090;2023-04-03T07:04:03;4.30;96.60
19803;DHT22;66074;50.764;6.090;2023-04-03T07:06:29;4.30;96.70
19803;DHT22;66074;50.764;6.090;2023-04-03T07:08:55;4.40;96.80
19803;DHT22;66074;50.764;6.090;2023-04-03T07:11:21;4.50;96.40
19803;DHT22;66074;50.764;6.090;2023-04-03T07:13:46;4.50;96.20
19803;DHT22;66074;50.764;6.090;2023-04-03T07:16:12;4.50;96.10
19803;DHT22;66074;50.764;6.090;2023-04-03T07:18:37;4.60;96.20
19803;DHT22;66074;50.764;6.090;2023-04-03T07:21:04;4.60;96.10
19803;DHT22;66074;50.764;6.090;2023-04-03T07:23:30;4.70;95.90
19803;DHT22;66074;50.764;6.090;2023-04-03T07:25:55;4.80;96.10
19803;DHT22;66074;50.764;6.090;2023-04-03T07:28:22;4.80;96.00
19803;DHT22;66074;50.764;6.090;2023-04-03T07:31:14;4.90;95.90
19803;DHT22;66074;50.764;6.090;2023-04-03T07:33:41;5.00;95.50
19803;DHT22;66074;50.764;6.090;2023-04-03T07:36:08;5.10;95.80
19803;DHT22;66074;50.764;6.090;2023-04-03T07:38:37;5.10;95.50
19803;DHT22;66074;50.764;6.090;2023-04-03T07:41:03;5.10;95.50
19803;DHT22;66074;50.764;6.090;2023-04-03T07:43:29;5.20;95.80
19803;DHT22;66074;50.764;6.090;2023-04-03T07:45:55;5.30;95.80
19803;DHT22;66074;50.764;6.090;2023-04-03T07:48:22;5.30;95.60
19803;DHT22;66074;50.764;6.090;2023-04-03T07:50:48;5.40;95.60
19803;DHT22;66074;50.764;6.090;2023-04-03T07:53:14;5.40;94.70
19803;DHT22;66074;50.764;6.090;2023-04-03T07:55:41;5.40;95.20
19803;DHT22;66074;50.764;6.090;2023-04-03T07:58:13;5.60;95.30
19803;DHT22;66074;50.764;6.090;2023-04-03T08:00:40;5.90;95.30
19803;DHT22;66074;50.764;6.090;2023-04-03T08:03:07;6.20;94.70
19803;DHT22;66074;50.764;6.090;2023-04-03T08:05:37;6.30;94.00
19803;DHT22;66074;50.764;6.090;2023-04-03T08:08:04;6.40;94.00
19803;DHT22;66074;50.764;6.090;2023-04-03T08:10:31;6.40;94.00
19803;DHT22;66074;50.764;6.090;2023-04-03T08:12:57;6.50;94.20
19803;DHT22;66074;50.764;6.090;2023-04-03T08:15:22;6.40;94.00
19803;DHT22;66074;50.764;6.090;2023-04-03T08:17:48;6.40;93.90
19803;DHT22;66074;50.764;6.090;2023-04-03T08:20:14;6.50;94.00
19803;DHT22;66074;50.764;6.090;2023-04-03T08:22:39;6.60;94.10
19803;DHT22;66074;50.764;6.090;2023-04-03T08:25:07;6.50;93.80
19803;DHT22;66074;50.764;6.090;2023-04-03T08:27:33;6.50;93.60
19803;DHT22;66074;50.764;6.090;2023-04-03T08:29:59;6.60;93.80
19803;DHT22;66074;50.764;6.090;2023-04-03T08:32:25;6.70;93.10
19803;DHT22;66074;50.764;6.090;2023-04-03T08:34:51;6.40;93.50
19803;DHT22;66074;50.764;6.090;2023-04-03T08:37:16;6.50;93.50
19803;DHT22;66074;50.764;6.090;2023-04-03T08:39:43;6.70;93.30
19803;DHT22;66074;50.764;6.090;2023-04-03T08:44:59;6.60;92.70
19803;DHT22;66074;50.764;6.090;2023-04-03T08:47:43;6.70;93.10
19803;DHT22;66074;50.764;6.090;2023-04-03T08:50:15;6.70;93.10
19803;DHT22;66074;50.764;6.090;2023-04-03T08:52:43;6.60;93.10
19803;DHT22;66074;50.764;6.090;2023-04-03T08:58:01;6.50;92.80
19803;DHT22;66074;50.764;6.090;2023-04-03T09:00:40;6.50;93.10
19803;DHT22;66074;50.764;6.090;2023-04-03T09:03:13;6.50;93.60
19803;DHT22;66074;50.764;6.090;2023-04-03T09:06:07;6.60;93.20
19803;DHT22;66074;50.764;6.090;2023-04-03T09:11:25;6.40;93.50
19803;DHT22;66074;50.764;6.090;2023-04-03T09:17:06;6.30;93.30
19803;DHT22;66074;50.764;6.090;2023-04-03T09:20:03;6.20;93.30
19803;DHT22;66074;50.764;6.090;2023-04-03T09:22:25;6.20;93.10
19803;DHT22;66074;50.764;6.090;2023-04-03T09:25:10;6.10;93.20
19803;DHT22;66074;50.764;6.090;2023-04-03T09:27:37;6.20;93.00
19803;DHT22;66074;50.764;6.090;2023-04-03T09:30:03;6.30;93.10
19803;DHT22;66074;50.764;6.090;2023-04-03T09:32:32;6.40;93.10
19803;DHT22;66074;50.764;6.090;2023-04-03T09:35:48;6.50;93.10
19803;DHT22;66074;50.764;6.090;2023-04-03T09:38:00;6.50;92.50
19803;DHT22;66074;50.764;6.090;2023-04-03T09:42:53;6.70;92.80
19803;DHT22;66074;50.764;6.090;2023-04-03T09:53:41;6.80;92.40
19803;DHT22;66074;50.764;6.090;2023-04-03T09:58:46;7.00;91.90
19803;DHT22;66074;50.764;6.090;2023-04-03T10:01:41;7.10;92.80
19803;DHT22;66074;50.764;6.090;2023-04-03T10:04:13;7.40;92.20
19803;DHT22;66074;50.764;6.090;2023-04-03T10:06:41;7.40;91.40
19803;DHT22;66074;50.764;6.090;2023-04-03T10:09:31;7.40;92.20
19803;DHT22;66074;50.764;6.090;2023-04-03T10:12:11;7.40;90.50
19803;DHT22;66074;50.764;6.090;2023-04-03T10:14:39;7.40;91.40
19803;DHT22;66074;50.764;6.090;2023-04-03T10:28:05;7.50;90.20
19803;DHT22;66074;50.764;6.090;2023-04-03T10:33:49;7.50;90.10
19803;DHT22;66074;50.764;6.090;2023-04-03T10:36:38;7.60;89.30
19803;DHT22;66074;50.764;6.090;2023-04-03T10:44:41;7.70;90.60
19803;DHT22;66074;50.764;6.090;2023-04-03T10:47:36;7.70;87.50
19803;DHT22;66074;50.764;6.090;2023-04-03T10:50:31;7.80;87.90
19803;DHT22;66074;50.764;6.090;2023-04-03T10:58:51;7.80;87.10
19803;DHT22;66074;50.764;6.090;2023-04-03T11:01:26;7.90;86.30
19803;DHT22;66074;50.764;6.090;2023-04-03T11:03:58;7.90;83.50
19803;DHT22;66074;50.764;6.090;2023-04-03T11:06:28;7.90;85.50
19803;DHT22;66074;50.764;6.090;2023-04-03T11:09:00;8.00;84.40
19803;DHT22;66074;50.764;6.090;2023-04-03T11:11:34;8.00;87.40
19803;DHT22;66074;50.764;6.090;2023-04-03T11:16:48;7.90;83.40
19803;DHT22;66074;50.764;6.090;2023-04-03T11:19:20;7.90;86.20
19803;DHT22;66074;50.764;6.090;2023-04-03T11:24:32;8.00;83.00
19803;DHT22;66074;50.764;6.090;2023-04-03T11:27:00;8.10;87.20
19803;DHT22;66074;50.764;6.090;2023-04-03T11:29:32;8.20;86.40
19803;DHT22;66074;50.764;6.090;2023-04-03T11:32:28;8.20;84.00
19803;DHT22;66074;50.764;6.090;2023-04-03T11:34:58;8.20;82.60
19803;DHT22;66074;50.764;6.090;2023-04-03T11:40:25;8.40;84.50
19803;DHT22;66074;50.764;6.090;2023-04-03T11:42:55;8.50;85.20
19803;DHT22;66074;50.764;6.090;2023-04-03T11:45:35;8.50;84.20
19803;DHT22;66074;50.764;6.090;2023-04-03T11:48:49;8.60;82.90
19803;DHT22;66074;50.764;6.090;2023-04-03T11:50:49;8.60;83.90
19803;DHT22;66074;50.764;6.090;2023-04-03T11:58:34;8.70;84.50
19803;DHT22;66074;50.764;6.090;2023-04-03T12:01:02;8.70;81.50
19803;DHT22;66074;50.764;6.090;2023-04-03T12:16:29;9.00;83.00
19803;DHT22;66074;50.764;6.090;2023-04-03T12:19:00;9.00;83.60
19803;DHT22;66074;50.764;6.090;2023-04-03T12:45:40;9.10;78.10
19803;DHT22;66074;50.764;6.090;2023-04-03T12:48:16;9.20;77.70
19803;DHT22;66074;50.764;6.090;2023-04-03T12:50:45;9.40;79.00
19803;DHT22;66074;50.764;6.090;2023-04-03T12:53:18;9.50;78.80
19803;DHT22;66074;50.764;6.090;2023-04-03T12:55:44;9.40;79.70
19803;DHT22;66074;50.764;6.090;2023-04-03T12:58:22;9.50;80.10
19803;DHT22;66074;50.764;6.090;2023-04-03T13:01:09;9.60;77.50
19803;DHT22;66074;50.764;6.090;2023-04-03T13:03:39;9.70;80.00
19803;DHT22;66074;50.764;6.090;2023-04-03T13:06:05;9.90;81.40
19803;DHT22;66074;50.764;6.090;2023-04-03T13:08:31;9.80;80.20
19803;DHT22;66074;50.764;6.090;2023-04-03T13:11:11;9.80;81.20
19803;DHT22;66074;50.764;6.090;2023-04-03T13:13:37;9.90;77.30
19803;DHT22;66074;50.764;6.090;2023-04-03T13:16:11;10.00;78.70
19803;DHT22;66074;50.764;6.090;2023-04-03T13:18:37;10.10;75.50
19803;DHT22;66074;50.764;6.090;2023-04-03T13:21:25;10.00;70.70
19803;DHT22;66074;50.764;6.090;2023-04-03T13:23:55;10.10;72.30
19803;DHT22;66074;50.764;6.090;2023-04-03T13:26:23;10.10;72.80
19803;DHT22;66074;50.764;6.090;2023-04-03T13:28:50;10.40;77.10
19803;DHT22;66074;50.764;6.090;2023-04-03T13:31:22;11.40;78.40
19803;DHT22;66074;50.764;6.090;2023-04-03T13:33:57;14.80;74.00
19803;DHT22;66074;50.764;6.090;2023-04-03T13:36:30;17.10;65.60
19803;DHT22;66074;50.764;6.090;2023-04-03T13:41:41;20.40;64.80
19803;DHT22;66074;50.764;6.090;2023-04-03T13:46:42;21.60;62.80
19803;DHT22;66074;50.764;6.090;2023-04-03T13:49:29;23.00;66.30
19803;DHT22;66074;50.764;6.090;2023-04-03T13:51:55;23.70;57.70
19803;DHT22;66074;50.764;6.090;2023-04-03T13:54:29;24.10;64.10
19803;DHT22;66074;50.764;6.090;2023-04-03T13:56:58;23.30;56.40
19803;DHT22;66074;50.764;6.090;2023-04-03T13:59:31;23.60;61.10
19803;DHT22;66074;50.764;6.090;2023-04-03T14:06:56;23.40;56.50
19803;DHT22;66074;50.764;6.090;2023-04-03T14:09:24;22.90;55.20
19803;DHT22;66074;50.764;6.090;2023-04-03T14:11:53;22.70;53.00
19803;DHT22;66074;50.764;6.090;2023-04-03T14:14:31;22.70;56.70
19803;DHT22;66074;50.764;6.090;2023-04-03T14:17:01;24.30;57.30
19803;DHT22;66074;50.764;6.090;2023-04-03T14:19:32;24.60;54.80
19803;DHT22;66074;50.764;6.090;2023-04-03T14:22:01;24.90;54.10
19803;DHT22;66074;50.764;6.090;2023-04-03T14:24:31;26.00;57.20
19803;DHT22;66074;50.764;6.090;2023-04-03T14:26:57;26.40;56.20
19803;DHT22;66074;50.764;6.090;2023-04-03T14:29:24;26.30;55.60
19803;DHT22;66074;50.764;6.090;2023-04-03T14:31:50;26.50;55.20
19803;DHT22;66074;50.764;6.090;2023-04-03T14:34:16;26.20;54.60
19803;DHT22;66074;50.764;6.090;2023-04-03T14:36:43;26.50;55.00
19803;DHT22;66074;50.764;6.090;2023-04-03T14:39:17;27.80;55.80
19803;DHT22;66074;50.764;6.090;2023-04-03T14:41:44;28.40;49.70
19803;DHT22;66074;50.764;6.090;2023-04-03T14:44:09;29.00;52.40
19803;DHT22;66074;50.764;6.090;2023-04-03T14:46:37;29.10;53.60
19803;DHT22;66074;50.764;6.090;2023-04-03T14:49:14;29.20;51.90
19803;DHT22;66074;50.764;6.090;2023-04-03T14:51:40;28.90;48.50
19803;DHT22;66074;50.764;6.090;2023-04-03T14:54:09;28.20;51.10
19803;DHT22;66074;50.764;6.090;2023-04-03T14:56:36;27.20;49.60
19803;DHT22;66074;50.764;6.090;2023-04-03T14:59:02;25.80;50.10
19803;DHT22;66074;50.764;6.090;2023-04-03T15:01:28;26.10;51.30
19803;DHT22;66074;50.764;6.090;2023-04-03T15:03:54;26.70;51.10
19803;DHT22;66074;50.764;6.090;2023-04-03T15:06:20;26.00;49.20
19803;DHT22;66074;50.764;6.090;2023-04-03T15:08:47;26.10;49.90
19803;DHT22;66074;50.764;6.090;2023-04-03T15:11:14;26.90;48.70
19803;DHT22;66074;50.764;6.090;2023-04-03T15:13:40;27.10;49.60
19803;DHT22;66074;50.764;6.090;2023-04-03T15:16:14;25.10;50.40
19803;DHT22;66074;50.764;6.090;2023-04-03T15:18:40;22.90;46.20
19803;DHT22;66074;50.764;6.090;2023-04-03T15:21:06;20.80;47.30
19803;DHT22;66074;50.764;6.090;2023-04-03T15:23:32;19.30;47.40
19803;DHT22;66074;50.764;6.090;2023-04-03T15:25:58;18.10;46.80
19803;DHT22;66074;50.764;6.090;2023-04-03T15:28:38;16.60;46.80
19803;DHT22;66074;50.764;6.090;2023-04-03T15:31:06;15.70;46.70
19803;DHT22;66074;50.764;6.090;2023-04-03T15:33:33;15.10;48.90
19803;DHT22;66074;50.764;6.090;2023-04-03T15:35:59;14.20;48.80
19803;DHT22;66074;50.764;6.090;2023-04-03T15:38:25;13.70;49.10
19803;DHT22;66074;50.764;6.090;2023-04-03T15:40:51;13.30;49.50
19803;DHT22;66074;50.764;6.090;2023-04-03T15:43:17;13.20;50.50
19803;DHT22;66074;50.764;6.090;2023-04-03T15:45:44;13.00;50.40
19803;DHT22;66074;50.764;6.090;2023-04-03T15:48:10;12.80;50.10
19803;DHT22;66074;50.764;6.090;2023-04-03T15:50:37;12.60;50.40
19803;DHT22;66074;50.764;6.090;2023-04-03T15:53:03;12.10;51.30
19803;DHT22;66074;50.764;6.090;2023-04-03T15:55:32;11.80;50.90
19803;DHT22;66074;50.764;6.090;2023-04-03T15:57:58;11.60;51.00
19803;DHT22;66074;50.764;6.090;2023-04-03T16:00:25;11.50;51.20
19803;DHT22;66074;50.764;6.090;2023-04-03T16:02:55;11.40;52.20
19803;DHT22;66074;50.764;6.090;2023-04-03T16:05:23;11.20;51.90
19803;DHT22;66074;50.764;6.090;2023-04-03T16:07:48;11.10;51.90
19803;DHT22;66074;50.764;6.090;2023-04-03T16:10:16;11.00;51.70
19803;DHT22;66074;50.764;6.090;2023-04-03T16:12:43;11.00;51.80
19803;DHT22;66074;50.764;6.090;2023-04-03T16:15:09;11.00;52.40
19803;DHT22;66074;50.764;6.090;2023-04-03T16:17:37;10.90;51.80
19803;DHT22;66074;50.764;6.090;2023-04-03T16:20:04;10.80;52.40
19803;DHT22;66074;50.764;6.090;2023-04-03T16:22:30;10.80;52.80
19803;DHT22;66074;50.764;6.090;2023-04-03T16:24:56;10.70;52.90
19803;DHT22;66074;50.764;6.090;2023-04-03T16:27:22;10.60;53.40
19803;DHT22;66074;50.764;6.090;2023-04-03T16:29:55;10.60;53.20
19803;DHT22;66074;50.764;6.090;2023-04-03T16:32:22;10.50;52.90
19803;DHT22;66074;50.764;6.090;2023-04-03T16:34:49;10.50;53.10
19803;DHT22;66074;50.764;6.090;2023-04-03T16:37:15;10.50;53.10
19803;DHT22;66074;50.764;6.090;2023-04-03T16:39:41;10.50;53.50
19803;DHT22;66074;50.764;6.090;2023-04-03T16:42:06;10.40;53.80
19803;DHT22;66074;50.764;6.090;2023-04-03T16:44:34;10.30;54.10
19803;DHT22;66074;50.764;6.090;2023-04-03T16:47:00;10.30;55.90
19803;DHT22;66074;50.764;6.090;2023-04-03T16:49:26;10.10;55.20
19803;DHT22;66074;50.764;6.090;2023-04-03T16:51:57;10.10;55.70
19803;DHT22;66074;50.764;6.090;2023-04-03T16:54:23;10.00;55.70
19803;DHT22;66074;50.764;6.090;2023-04-03T16:56:48;9.90;57.10
19803;DHT22;66074;50.764;6.090;2023-04-03T16:59:14;9.80;58.40
19803;DHT22;66074;50.764;6.090;2023-04-03T17:01:40;9.80;58.20
19803;DHT22;66074;50.764;6.090;2023-04-03T17:04:05;9.70;58.10
19803;DHT22;66074;50.764;6.090;2023-04-03T17:06:31;9.80;58.20
19803;DHT22;66074;50.764;6.090;2023-04-03T17:08:57;9.70;59.10
19803;DHT22;66074;50.764;6.090;2023-04-03T17:11:22;9.70;58.70
19803;DHT22;66074;50.764;6.090;2023-04-03T17:13:48;9.60;58.80
19803;DHT22;66074;50.764;6.090;2023-04-03T17:16:15;9.50;59.80
19803;DHT22;66074;50.764;6.090;2023-04-03T17:18:41;9.40;59.90
19803;DHT22;66074;50.764;6.090;2023-04-03T17:21:09;9.40;58.90
19803;DHT22;66074;50.764;6.090;2023-04-03T17:23:36;9.40;59.20
19803;DHT22;66074;50.764;6.090;2023-04-03T17:26:03;9.30;59.00
19803;DHT22;66074;50.764;6.090;2023-04-03T17:28:29;9.30;59.00
19803;DHT22;66074;50.764;6.090;2023-04-03T17:31:00;9.20;59.20
19803;DHT22;66074;50.764;6.090;2023-04-03T17:33:26;9.30;59.30
19803;DHT22;66074;50.764;6.090;2023-04-03T17:35:58;9.20;59.70
19803;DHT22;66074;50.764;6.090;2023-04-03T17:38:25;9.10;61.30
19803;DHT22;66074;50.764;6.090;2023-04-03T17:40:51;9.10;60.60
19803;DHT22;66074;50.764;6.090;2023-04-03T17:43:20;9.20;61.20
19803;DHT22;66074;50.764;6.090;2023-04-03T17:45:46;9.20;62.70
19803;DHT22;66074;50.764;6.090;2023-04-03T17:48:11;9.00;63.40
19803;DHT22;66074;50.764;6.090;2023-04-03T17:50:37;8.90;63.50